sensor_id;sensor_type;location;lat;lon;timestamp;pressure;altitude;pressure_sealevel;temperature;humidity
72210;BME280;60113;48.762;12.302;2024-01-27T00:01:37;98694.19;;;0.62;100.00
72210;BME280;60113;48.762;12.302;2024-01-27T00:04:03;98697.59;;;0.64;100.00
72210;BME280;60113;48.762;12.302;2024-01-27T00:06:29;98693.34;;;0.61;100.00
72210;BME280;60113;48.762;12.302;2024-01-27T00:08:54;98687.31;;;0.59;100.00
72210;BME280;60113;48.762;12.302;2024-01-27T00:11:20;98692.56;;;0.53;100.00
72210;BME280;60113;48.762;12.302;2024-01-27T00:13:47;98697.75;;;0.52;100.00
72210;BME280;60113;48.762;12.302;2024-01-27T00:16:15;98693.50;;;0.47;100.00
72210;BME280;60113;48.762;12.302;2024-01-27T00:18:41;98699.56;;;0.46;100.00
72210;BME280;60113;48.762;12.302;2024-01-27T00:21:07;98699.59;;;0.42;100.00
72210;BME280;60113;48.762;12.302;2024-01-27T00:23:33;98703.91;;;0.41;100.00
72210;BME280;60113;48.762;12.302;2024-01-27T00:26:01;98705.63;;;0.41;100.00
72210;BME280;60113;48.762;12.302;2024-01-27T00:28:26;98704.84;;;0.37;100.00
72210;BME280;60113;48.762;12.302;2024-01-27T00:30:52;98715.22;;;0.34;100.00
72210;BME280;60113;48.762;12.302;2024-01-27T00:33:18;98712.66;;;0.29;100.00
72210;BME280;60113;48.762;12.302;2024-01-27T00:35:43;98719.59;;;0.26;100.00
72210;BME280;60113;48.762;12.302;2024-01-27T00:38:09;98717.06;;;0.21;100.00
72210;BME280;60113;48.762;12.302;2024-01-27T00:40:35;98725.75;;;0.15;100.00
72210;BME280;60113;48.762;12.302;2024-01-27T00:43:02;98732.69;;;0.08;100.00
72210;BME280;60113;48.762;12.302;2024-01-27T00:45:28;98722.41;;;0.01;100.00
72210;BME280;60113;48.762;12.302;2024-01-27T00:47:58;98723.34;;;-0.07;100.00
72210;BME280;60113;48.762;12.302;2024-01-27T00:50:25;98725.16;;;-0.18;100.00
72210;BME280;60113;48.762;12.302;2024-01-27T00:52:50;98720.06;;;-0.26;100.00
72210;BME280;60113;48.762;12.302;2024-01-27T00:55:16;98715.78;;;-0.29;100.00
72210;BME280;60113;48.762;12.302;2024-01-27T00:57:43;98717.50;;;-0.29;100.00
72210;BME280;60113;48.762;12.302;2024-01-27T01:00:09;98717.50;;;-0.28;100.00
72210;BME280;60113;48.762;12.302;2024-01-27T01:02:36;98722.63;;;-0.24;100.00
72210;BME280;60113;48.762;12.302;2024-01-27T01:05:02;98720.06;;;-0.24;100.00
72210;BME280;60113;48.762;12.302;2024-01-27T01:07:29;98727.81;;;-0.28;100.00
72210;BME280;60113;48.762;12.302;2024-01-27T01:09:55;98729.59;;;-0.30;100.00
72210;BME280;60113;48.762;12.302;2024-01-27T01:12:20;98732.19;;;-0.33;100.00
72210;BME280;60113;48.762;12.302;2024-01-27T01:14:47;98735.63;;;-0.35;100.00
72210;BME280;60113;48.762;12.302;2024-01-27T01:17:13;98748.56;;;-0.39;100.00
72210;BME280;60113;48.762;12.302;2024-01-27T01:19:39;98749.47;;;-0.40;100.00
72210;BME280;60113;48.762;12.302;2024-01-27T01:22:07;98754.66;;;-0.43;100.00
72210;BME280;60113;48.762;12.302;2024-01-27T01:24:33;98769.28;;;-0.46;100.00
72210;BME280;60113;48.762;12.302;2024-01-27T01:26:58;98773.66;;;-0.52;100.00
72210;BME280;60113;48.762;12.302;2024-01-27T01:29:25;98773.69;;;-0.58;100.00
72210;BME280;60113;48.762;12.302;2024-01-27T01:31:51;98776.31;;;-0.64;100.00
72210;BME280;60113;48.762;12.302;2024-01-27T01:34:16;98775.47;;;-0.71;100.00
72210;BME280;60113;48.762;12.302;2024-01-27T01:36:42;98783.25;;;-0.76;100.00
72210;BME280;60113;48.762;12.302;2024-01-27T01:39:10;98772.94;;;-0.82;100.00
72210;BME280;60113;48.762;12.302;2024-01-27T01:41:36;98769.53;;;-0.84;100.00
72210;BME280;60113;48.762;12.302;2024-01-27T01:44:01;98766.97;;;-0.84;100.00
72210;BME280;60113;48.762;12.302;2024-01-27T01:46:27;98766.97;;;-0.84;100.00
72210;BME280;60113;48.762;12.302;2024-01-27T01:48:53;98758.34;;;-0.83;100.00
72210;BME280;60113;48.762;12.302;2024-01-27T01:51:19;98772.09;;;-0.81;100.00
72210;BME280;60113;48.762;12.302;2024-01-27T01:53:48;98772.09;;;-0.79;100.00
72210;BME280;60113;48.762;12.302;2024-01-27T01:56:15;98769.53;;;-0.81;100.00
72210;BME280;60113;48.762;12.302;2024-01-27T01:58:41;98763.50;;;-0.81;100.00
72210;BME280;60113;48.762;12.302;2024-01-27T02:01:07;98766.94;;;-0.81;100.00
72210;BME280;60113;48.762;12.302;2024-01-27T02:03:33;98772.94;;;-0.80;100.00
72210;BME280;60113;48.762;12.302;2024-01-27T02:05:58;98778.13;;;-0.82;100.00
72210;BME280;60113;48.762;12.302;2024-01-27T02:08:24;98778.13;;;-0.83;100.00
72210;BME280;60113;48.762;12.302;2024-01-27T02:10:49;98786.75;;;-0.86;100.00
72210;BME280;60113;48.762;12.302;2024-01-27T02:13:24;98788.47;;;-0.85;100.00
72210;BME280;60113;48.762;12.302;2024-01-27T02:15:50;98791.06;;;-0.90;100.00
72210;BME280;60113;48.762;12.302;2024-01-27T02:18:16;98797.97;;;-0.90;100.00
72210;BME280;60113;48.762;12.302;2024-01-27T02:20:42;98785.88;;;-0.88;100.00
72210;BME280;60113;48.762;12.302;2024-01-27T02:23:08;98796.22;;;-0.86;100.00
72210;BME280;60113;48.762;12.302;2024-01-27T02:25:35;98792.78;;;-0.85;100.00
72210;BME280;60113;48.762;12.302;2024-01-27T02:28:01;98789.34;;;-0.88;100.00
72210;BME280;60113;48.762;12.302;2024-01-27T02:30:28;98795.38;;;-0.87;100.00
72210;BME280;60113;48.762;12.302;2024-01-27T02:32:55;98789.34;;;-0.86;100.00
72210;BME280;60113;48.762;12.302;2024-01-27T02:35:21;98797.06;;;-0.86;100.00
72210;BME280;60113;48.762;12.302;2024-01-27T02:37:47;98797.06;;;-0.83;100.00
72210;BME280;60113;48.762;12.302;2024-01-27T02:40:13;98797.94;;;-0.85;100.00
72210;BME280;60113;48.762;12.302;2024-01-27T02:42:40;98808.28;;;-0.85;100.00
72210;BME280;60113;48.762;12.302;2024-01-27T02:45:10;98803.09;;;-0.84;100.00
72210;BME280;60113;48.762;12.302;2024-01-27T02:47:37;98807.38;;;-0.81;100.00
72210;BME280;60113;48.762;12.302;2024-01-27T02:50:03;98802.22;;;-0.80;100.00
72210;BME280;60113;48.762;12.302;2024-01-27T02:52:32;98800.47;;;-0.76;100.00
72210;BME280;60113;48.762;12.302;2024-01-27T02:54:57;98803.88;;;-0.74;100.00
72210;BME280;60113;48.762;12.302;2024-01-27T02:57:23;98814.22;;;-0.76;100.00
72210;BME280;60113;48.762;12.302;2024-01-27T02:59:48;98814.25;;;-0.82;100.00
72210;BME280;60113;48.762;12.302;2024-01-27T03:02:15;98822.88;;;-0.86;100.00
72210;BME280;60113;48.762;12.302;2024-01-27T03:04:40;98823.78;;;-0.89;100.00
72210;BME280;60113;48.762;12.302;2024-01-27T03:07:06;98825.50;;;-0.91;100.00
72210;BME280;60113;48.762;12.302;2024-01-27T03:09:32;98822.03;;;-0.91;100.00
72210;BME280;60113;48.762;12.302;2024-01-27T03:11:58;98824.63;;;-0.90;100.00
72210;BME280;60113;48.762;12.302;2024-01-27T03:14:24;98831.53;;;-0.90;100.00
72210;BME280;60113;48.762;12.302;2024-01-27T03:16:50;98835.81;;;-0.91;100.00
72210;BME280;60113;48.762;12.302;2024-01-27T03:19:15;98827.19;;;-0.90;100.00
72210;BME280;60113;48.762;12.302;2024-01-27T03:21:41;98829.75;;;-0.88;100.00
72210;BME280;60113;48.762;12.302;2024-01-27T03:24:06;98822.88;;;-0.86;100.00
72210;BME280;60113;48.762;12.302;2024-01-27T03:26:32;98832.34;;;-0.83;100.00
72210;BME280;60113;48.762;12.302;2024-01-27T03:28:59;98834.91;;;-0.80;100.00
72210;BME280;60113;48.762;12.302;2024-01-27T03:31:30;98840.03;;;-0.77;100.00
72210;BME280;60113;48.762;12.302;2024-01-27T03:33:58;98832.31;;;-0.79;100.00
72210;BME280;60113;48.762;12.302;2024-01-27T03:36:24;98843.50;;;-0.77;100.00
72210;BME280;60113;48.762;12.302;2024-01-27T03:38:49;98855.53;;;-0.76;100.00
72210;BME280;60113;48.762;12.302;2024-01-27T03:41:15;98854.69;;;-0.74;100.00
72210;BME280;60113;48.762;12.302;2024-01-27T03:43:41;98851.25;;;-0.75;100.00
72210;BME280;60113;48.762;12.302;2024-01-27T03:46:06;98855.53;;;-0.79;100.00
72210;BME280;60113;48.762;12.302;2024-01-27T03:48:32;98868.47;;;-0.80;100.00
72210;BME280;60113;48.762;12.302;2024-01-27T03:50:58;98872.81;;;-0.85;100.00
72210;BME280;60113;48.762;12.302;2024-01-27T03:53:23;98872.81;;;-0.92;100.00
72210;BME280;60113;48.762;12.302;2024-01-27T03:55:49;98878.00;;;-0.98;100.00
72210;BME280;60113;48.762;12.302;2024-01-27T03:58:15;98888.34;;;-1.04;100.00
72210;BME280;60113;48.762;12.302;2024-01-27T04:00:40;98889.19;;;-1.10;100.00
72210;BME280;60113;48.762;12.302;2024-01-27T04:03:05;98899.53;;;-1.16;100.00
72210;BME280;60113;48.762;12.302;2024-01-27T04:05:31;98897.81;;;-1.20;100.00
72210;BME280;60113;48.762;12.302;2024-01-27T04:07:57;98896.13;;;-1.24;100.00
72210;BME280;60113;48.762;12.302;2024-01-27T04:10:22;98902.13;;;-1.29;100.00
72210;BME280;60113;48.762;12.302;2024-01-27T04:12:49;98903.88;;;-1.35;100.00
72210;BME280;60113;48.762;12.302;2024-01-27T04:15:15;98908.16;;;-1.42;100.00
72210;BME280;60113;48.762;12.302;2024-01-27T04:17:41;98905.59;;;-1.47;100.00
72210;BME280;60113;48.762;12.302;2024-01-27T04:20:08;98911.63;;;-1.53;100.00
72210;BME280;60113;48.762;12.302;2024-01-27T04:22:34;98909.03;;;-1.57;100.00
72210;BME280;60113;48.762;12.302;2024-01-27T04:25:00;98908.16;;;-1.59;100.00
72210;BME280;60113;48.762;12.302;2024-01-27T04:27:27;98906.47;;;-1.57;100.00
72210;BME280;60113;48.762;12.302;2024-01-27T04:29:53;98909.91;;;-1.57;100.00
72210;BME280;60113;48.762;12.302;2024-01-27T04:32:18;98915.06;;;-1.58;100.00
72210;BME280;60113;48.762;12.302;2024-01-27T04:34:44;98911.63;;;-1.59;100.00
72210;BME280;60113;48.762;12.302;2024-01-27T04:37:09;98922.78;;;-1.60;100.00
72210;BME280;60113;48.762;12.302;2024-01-27T04:39:35;98922.78;;;-1.61;100.00
72210;BME280;60113;48.762;12.302;2024-01-27T04:42:02;98921.91;;;-1.64;100.00
72210;BME280;60113;48.762;12.302;2024-01-27T04:44:28;98926.22;;;-1.69;100.00
72210;BME280;60113;48.762;12.302;2024-01-27T04:46:53;98933.09;;;-1.74;100.00
72210;BME280;60113;48.762;12.302;2024-01-27T04:49:19;98933.09;;;-1.80;100.00
72210;BME280;60113;48.762;12.302;2024-01-27T04:51:45;98931.34;;;-1.88;100.00
72210;BME280;60113;48.762;12.302;2024-01-27T04:54:10;98939.06;;;-1.95;100.00
72210;BME280;60113;48.762;12.302;2024-01-27T04:56:36;98939.91;;;-2.06;100.00
72210;BME280;60113;48.762;12.302;2024-01-27T04:59:02;98940.75;;;-2.15;100.00
72210;BME280;60113;48.762;12.302;2024-01-27T05:01:28;98942.44;;;-2.21;100.00
72210;BME280;60113;48.762;12.302;2024-01-27T05:03:53;98950.16;;;-2.24;100.00
72210;BME280;60113;48.762;12.302;2024-01-27T05:06:19;98954.44;;;-2.28;100.00
72210;BME280;60113;48.762;12.302;2024-01-27T05:08:46;98947.56;;;-2.28;100.00
72210;BME280;60113;48.762;12.302;2024-01-27T05:11:11;98951.88;;;-2.25;100.00
72210;BME280;60113;48.762;12.302;2024-01-27T05:13:37;98954.47;;;-2.20;100.00
72210;BME280;60113;48.762;12.302;2024-01-27T05:16:04;98959.66;;;-2.16;100.00
72210;BME280;60113;48.762;12.302;2024-01-27T05:18:31;98966.50;;;-2.16;100.00
72210;BME280;60113;48.762;12.302;2024-01-27T05:20:56;98967.34;;;-2.20;100.00
72210;BME280;60113;48.762;12.302;2024-01-27T05:23:23;98965.59;;;-2.23;100.00
72210;BME280;60113;48.762;12.302;2024-01-27T05:25:49;98960.47;;;-2.20;100.00
72210;BME280;60113;48.762;12.302;2024-01-27T05:28:14;98954.50;;;-2.17;100.00
72210;BME280;60113;48.762;12.302;2024-01-27T05:30:40;98964.81;;;-2.14;100.00
72210;BME280;60113;48.762;12.302;2024-01-27T05:33:05;98961.34;;;-2.13;100.00
72210;BME280;60113;48.762;12.302;2024-01-27T05:35:32;98967.38;;;-2.11;100.00
72210;BME280;60113;48.762;12.302;2024-01-27T05:37:59;98966.53;;;-2.10;100.00
72210;BME280;60113;48.762;12.302;2024-01-27T05:40:24;98969.94;;;-2.14;100.00
72210;BME280;60113;48.762;12.302;2024-01-27T05:42:50;98969.94;;;-2.14;100.00
72210;BME280;60113;48.762;12.302;2024-01-27T05:45:15;98971.66;;;-2.16;100.00
72210;BME280;60113;48.762;12.302;2024-01-27T05:47:41;98983.66;;;-2.18;100.00
72210;BME280;60113;48.762;12.302;2024-01-27T05:50:08;98980.22;;;-2.22;100.00
72210;BME280;60113;48.762;12.302;2024-01-27T05:52:35;98980.22;;;-2.28;100.00
72210;BME280;60113;48.762;12.302;2024-01-27T05:55:02;98993.06;;;-2.31;100.00
72210;BME280;60113;48.762;12.302;2024-01-27T05:57:28;98991.31;;;-2.37;100.00
72210;BME280;60113;48.762;12.302;2024-01-27T05:59:54;98995.56;;;-2.45;100.00
72210;BME280;60113;48.762;12.302;2024-01-27T06:02:19;98992.97;;;-2.50;100.00
72210;BME280;60113;48.762;12.302;2024-01-27T06:04:45;98992.94;;;-2.56;100.00
72210;BME280;60113;48.762;12.302;2024-01-27T06:07:11;98990.34;;;-2.59;100.00
72210;BME280;60113;48.762;12.302;2024-01-27T06:09:37;98998.91;;;-2.59;100.00
72210;BME280;60113;48.762;12.302;2024-01-27T06:12:03;98994.66;;;-2.57;100.00
72210;BME280;60113;48.762;12.302;2024-01-27T06:14:29;98986.09;;;-2.53;100.00
72210;BME280;60113;48.762;12.302;2024-01-27T06:16:54;98990.41;;;-2.47;100.00
72210;BME280;60113;48.762;12.302;2024-01-27T06:19:21;98987.88;;;-2.42;100.00
72210;BME280;60113;48.762;12.302;2024-01-27T06:21:47;98987.88;;;-2.39;100.00
72210;BME280;60113;48.762;12.302;2024-01-27T06:24:12;98996.47;;;-2.35;100.00
72210;BME280;60113;48.762;12.302;2024-01-27T06:26:37;98978.47;;;-2.29;100.00
72210;BME280;60113;48.762;12.302;2024-01-27T06:29:03;98990.53;;;-2.20;100.00
72210;BME280;60113;48.762;12.302;2024-01-27T06:31:38;98991.38;;;-2.17;100.00
72210;BME280;60113;48.762;12.302;2024-01-27T06:34:10;98991.41;;;-2.15;100.00
72210;BME280;60113;48.762;12.302;2024-01-27T06:36:39;98992.28;;;-2.11;100.00
72210;BME280;60113;48.762;12.302;2024-01-27T06:39:05;98996.56;;;-2.09;100.00
72210;BME280;60113;48.762;12.302;2024-01-27T06:41:30;98996.59;;;-2.06;100.00
72210;BME280;60113;48.762;12.302;2024-01-27T06:43:56;98994.88;;;-2.05;100.00
72210;BME280;60113;48.762;12.302;2024-01-27T06:46:28;98991.44;;;-2.04;100.00
72210;BME280;60113;48.762;12.302;2024-01-27T06:48:54;99002.63;;;-2.02;100.00
72210;BME280;60113;48.762;12.302;2024-01-27T06:51:20;99012.06;;;-1.99;100.00
72210;BME280;60113;48.762;12.302;2024-01-27T06:53:45;99003.47;;;-1.98;100.00
72210;BME280;60113;48.762;12.302;2024-01-27T06:56:14;99007.78;;;-1.99;100.00
72210;BME280;60113;48.762;12.302;2024-01-27T06:58:40;99015.53;;;-1.96;100.00
72210;BME280;60113;48.762;12.302;2024-01-27T07:01:07;99006.91;;;-1.95;100.00
72210;BME280;60113;48.762;12.302;2024-01-27T07:03:32;99006.91;;;-1.95;100.00
72210;BME280;60113;48.762;12.302;2024-01-27T07:05:59;99006.06;;;-1.95;100.00
72210;BME280;60113;48.762;12.302;2024-01-27T07:08:27;99020.69;;;-1.94;100.00
72210;BME280;60113;48.762;12.302;2024-01-27T07:10:53;99027.53;;;-1.93;100.00
72210;BME280;60113;48.762;12.302;2024-01-27T07:13:20;99024.09;;;-1.92;100.00
72210;BME280;60113;48.762;12.302;2024-01-27T07:15:46;99032.69;;;-1.93;100.00
72210;BME280;60113;48.762;12.302;2024-01-27T07:18:12;99043.88;;;-1.90;100.00
72210;BME280;60113;48.762;12.302;2024-01-27T07:20:37;99037.88;;;-1.90;100.00
72210;BME280;60113;48.762;12.302;2024-01-27T07:23:03;99034.41;;;-1.88;100.00
72210;BME280;60113;48.762;12.302;2024-01-27T07:25:29;99039.59;;;-1.81;100.00
72210;BME280;60113;48.762;12.302;2024-01-27T07:27:54;99036.19;;;-1.79;100.00
72210;BME280;60113;48.762;12.302;2024-01-27T07:30:20;99038.78;;;-1.77;100.00
72210;BME280;60113;48.762;12.302;2024-01-27T07:32:46;99039.63;;;-1.77;100.00
72210;BME280;60113;48.762;12.302;2024-01-27T07:35:12;99040.47;;;-1.74;100.00
72210;BME280;60113;48.762;12.302;2024-01-27T07:37:37;99038.78;;;-1.68;100.00
72210;BME280;60113;48.762;12.302;2024-01-27T07:40:05;99038.81;;;-1.66;100.00
72210;BME280;60113;48.762;12.302;2024-01-27T07:42:31;99039.66;;;-1.63;100.00
72210;BME280;60113;48.762;12.302;2024-01-27T07:44:56;99051.72;;;-1.60;100.00
72210;BME280;60113;48.762;12.302;2024-01-27T07:47:22;99055.13;;;-1.58;100.00
72210;BME280;60113;48.762;12.302;2024-01-27T07:49:48;99051.72;;;-1.54;100.00
72210;BME280;60113;48.762;12.302;2024-01-27T07:52:14;99058.59;;;-1.51;100.00
72210;BME280;60113;48.762;12.302;2024-01-27T07:54:40;99049.16;;;-1.47;100.00
72210;BME280;60113;48.762;12.302;2024-01-27T07:57:06;99063.78;;;-1.43;100.00
72210;BME280;60113;48.762;12.302;2024-01-27T07:59:33;99066.34;;;-1.40;100.00
72210;BME280;60113;48.762;12.302;2024-01-27T08:02:00;99063.78;;;-1.34;100.00
72210;BME280;60113;48.762;12.302;2024-01-27T08:04:28;99074.13;;;-1.24;100.00
72210;BME280;60113;48.762;12.302;2024-01-27T08:06:54;99074.97;;;-1.15;100.00
72210;BME280;60113;48.762;12.302;2024-01-27T08:09:21;99075.84;;;-1.02;100.00
72210;BME280;60113;48.762;12.302;2024-01-27T08:11:47;99081.88;;;-0.89;100.00
72210;BME280;60113;48.762;12.302;2024-01-27T08:14:17;99089.63;;;-0.70;100.00
72210;BME280;60113;48.762;12.302;2024-01-27T08:16:46;99086.16;;;-0.48;100.00
72210;BME280;60113;48.762;12.302;2024-01-27T08:19:13;99087.81;;;-0.26;100.00
72210;BME280;60113;48.762;12.302;2024-01-27T08:21:40;99084.28;;;0.01;100.00
72210;BME280;60113;48.762;12.302;2024-01-27T08:24:06;99086.81;;;0.18;100.00
72210;BME280;60113;48.762;12.302;2024-01-27T08:26:32;99078.09;;;0.36;100.00
72210;BME280;60113;48.762;12.302;2024-01-27T08:28:57;99087.53;;;0.49;100.00
72210;BME280;60113;48.762;12.302;2024-01-27T08:31:23;99096.97;;;0.60;100.00
72210;BME280;60113;48.762;12.302;2024-01-27T08:33:50;99094.34;;;0.65;100.00
72210;BME280;60113;48.762;12.302;2024-01-27T08:36:15;99094.38;;;0.57;100.00
72210;BME280;60113;48.762;12.302;2024-01-27T08:38:41;99090.13;;;0.48;100.00
72210;BME280;60113;48.762;12.302;2024-01-27T08:41:07;99096.19;;;0.39;100.00
72210;BME280;60113;48.762;12.302;2024-01-27T08:43:34;99108.31;;;0.32;100.00
72210;BME280;60113;48.762;12.302;2024-01-27T08:45:59;99112.63;;;0.27;100.00
72210;BME280;60113;48.762;12.302;2024-01-27T08:48:26;99117.81;;;0.24;100.00
72210;BME280;60113;48.762;12.302;2024-01-27T08:50:51;99116.94;;;0.22;100.00
72210;BME280;60113;48.762;12.302;2024-01-27T08:53:17;99111.78;;;0.20;100.00
72210;BME280;60113;48.762;12.302;2024-01-27T08:55:42;99104.91;;;0.19;100.00
72210;BME280;60113;48.762;12.302;2024-01-27T08:58:08;99104.03;;;0.20;100.00
72210;BME280;60113;48.762;12.302;2024-01-27T09:00:35;99109.19;;;0.22;100.00
72210;BME280;60113;48.762;12.302;2024-01-27T09:03:00;99102.31;;;0.24;100.00
72210;BME280;60113;48.762;12.302;2024-01-27T09:05:26;99108.34;;;0.26;100.00
72210;BME280;60113;48.762;12.302;2024-01-27T09:07:53;99104.00;;;0.31;100.00
72210;BME280;60113;48.762;12.302;2024-01-27T09:10:21;99110.00;;;0.36;100.00
72210;BME280;60113;48.762;12.302;2024-01-27T09:12:46;99111.69;;;0.44;100.00
72210;BME280;60113;48.762;12.302;2024-01-27T09:15:11;99104.72;;;0.60;100.00
72210;BME280;60113;48.762;12.302;2024-01-27T09:17:37;99103.66;;;0.91;100.00
72210;BME280;60113;48.762;12.302;2024-01-27T09:20:03;99105.13;;;1.28;100.00
72210;BME280;60113;48.762;12.302;2024-01-27T09:22:29;99096.16;;;1.63;100.00
72210;BME280;60113;48.762;12.302;2024-01-27T09:24:58;99094.16;;;1.90;100.00
72210;BME280;60113;48.762;12.302;2024-01-27T09:27:23;99112.09;;;2.10;98.81
72210;BME280;60113;48.762;12.302;2024-01-27T09:29:49;99110.03;;;2.36;98.61
72210;BME280;60113;48.762;12.302;2024-01-27T09:32:15;99111.50;;;2.59;96.71
72210;BME280;60113;48.762;12.302;2024-01-27T09:34:40;99116.28;;;2.87;100.00
72210;BME280;60113;48.762;12.302;2024-01-27T09:37:05;99110.78;;;3.07;96.58
72210;BME280;60113;48.762;12.302;2024-01-27T09:39:31;99112.25;;;3.25;98.36
72210;BME280;60113;48.762;12.302;2024-01-27T09:42:00;99117.25;;;3.36;97.42
72210;BME280;60113;48.762;12.302;2024-01-27T09:44:31;99121.41;;;3.48;96.84
72210;BME280;60113;48.762;12.302;2024-01-27T09:46:59;99121.09;;;3.67;98.39
72210;BME280;60113;48.762;12.302;2024-01-27T09:49:26;99118.94;;;3.90;100.00
72210;BME280;60113;48.762;12.302;2024-01-27T09:51:52;99127.38;;;4.03;96.84
72210;BME280;60113;48.762;12.302;2024-01-27T09:54:26;99130.94;;;3.98;91.38
72210;BME280;60113;48.762;12.302;2024-01-27T09:56:52;99138.66;;;4.02;91.67
72210;BME280;60113;48.762;12.302;2024-01-27T09:59:20;99134.28;;;4.04;94.01
72210;BME280;60113;48.762;12.302;2024-01-27T10:01:47;99133.16;;;4.17;96.46
72210;BME280;60113;48.762;12.302;2024-01-27T10:04:13;99129.44;;;4.31;94.21
72210;BME280;60113;48.762;12.302;2024-01-27T10:06:40;99119.59;;;4.44;91.60
72210;BME280;60113;48.762;12.302;2024-01-27T10:09:06;99116.66;;;4.61;95.07
72210;BME280;60113;48.762;12.302;2024-01-27T10:11:35;99121.72;;;4.67;88.65
72210;BME280;60113;48.762;12.302;2024-01-27T10:14:01;99123.44;;;4.68;90.61
72210;BME280;60113;48.762;12.302;2024-01-27T10:16:28;99121.84;;;4.61;90.15
72210;BME280;60113;48.762;12.302;2024-01-27T10:19:02;99117.56;;;4.60;89.72
72210;BME280;60113;48.762;12.302;2024-01-27T10:21:28;99122.53;;;4.71;91.77
72210;BME280;60113;48.762;12.302;2024-01-27T10:23:53;99127.59;;;4.77;89.49
72210;BME280;60113;48.762;12.302;2024-01-27T10:26:19;99132.75;;;4.80;86.47
72210;BME280;60113;48.762;12.302;2024-01-27T10:28:56;99119.66;;;4.83;84.71
72210;BME280;60113;48.762;12.302;2024-01-27T10:31:28;99126.78;;;4.73;82.17
72210;BME280;60113;48.762;12.302;2024-01-27T10:33:55;99125.94;;;4.73;83.99
72210;BME280;60113;48.762;12.302;2024-01-27T10:36:24;99116.38;;;4.73;87.15
72210;BME280;60113;48.762;12.302;2024-01-27T10:38:49;99120.66;;;4.76;87.78
72210;BME280;60113;48.762;12.302;2024-01-27T10:41:23;99110.94;;;4.84;89.46
72210;BME280;60113;48.762;12.302;2024-01-27T10:43:53;99115.97;;;4.92;88.16
72210;BME280;60113;48.762;12.302;2024-01-27T10:46:21;99120.22;;;4.96;86.59
72210;BME280;60113;48.762;12.302;2024-01-27T10:48:51;99121.06;;;4.97;83.55
72210;BME280;60113;48.762;12.302;2024-01-27T10:51:28;99124.25;;;5.10;87.94
72210;BME280;60113;48.762;12.302;2024-01-27T10:54:03;99125.78;;;5.19;85.84
72210;BME280;60113;48.762;12.302;2024-01-27T10:56:32;99122.25;;;5.21;85.90
72210;BME280;60113;48.762;12.302;2024-01-27T10:58:58;99118.91;;;5.16;82.60
72210;BME280;60113;48.762;12.302;2024-01-27T11:01:24;99115.66;;;5.06;83.92
72210;BME280;60113;48.762;12.302;2024-01-27T11:03:52;99113.91;;;5.07;87.29
72210;BME280;60113;48.762;12.302;2024-01-27T11:06:22;99117.88;;;5.22;86.06
72210;BME280;60113;48.762;12.302;2024-01-27T11:08:49;99110.69;;;5.33;89.53
72210;BME280;60113;48.762;12.302;2024-01-27T11:11:16;99115.59;;;5.44;88.58
72210;BME280;60113;48.762;12.302;2024-01-27T11:13:43;99118.81;;;5.56;85.36
72210;BME280;60113;48.762;12.302;2024-01-27T11:16:18;99112.25;;;5.74;85.08
72210;BME280;60113;48.762;12.302;2024-01-27T11:18:45;99112.03;;;5.82;79.36
72210;BME280;60113;48.762;12.302;2024-01-27T11:21:15;99109.88;;;5.98;83.08
72210;BME280;60113;48.762;12.302;2024-01-27T11:23:41;99107.31;;;5.96;83.77
72210;BME280;60113;48.762;12.302;2024-01-27T11:26:09;99109.84;;;5.99;88.83
72210;BME280;60113;48.762;12.302;2024-01-27T11:28:35;99106.53;;;5.93;85.10
72210;BME280;60113;48.762;12.302;2024-01-27T11:31:05;99110.50;;;5.74;77.77
72210;BME280;60113;48.762;12.302;2024-01-27T11:33:31;99098.94;;;5.83;80.81
72210;BME280;60113;48.762;12.302;2024-01-27T11:36:04;99101.41;;;5.90;85.57
72210;BME280;60113;48.762;12.302;2024-01-27T11:38:33;99095.88;;;6.00;85.23
72210;BME280;60113;48.762;12.302;2024-01-27T11:41:00;99098.44;;;6.02;86.99
72210;BME280;60113;48.762;12.302;2024-01-27T11:43:26;99089.69;;;6.05;88.32
72210;BME280;60113;48.762;12.302;2024-01-27T11:45:58;99100.88;;;6.10;86.29
72210;BME280;60113;48.762;12.302;2024-01-27T11:48:24;99093.63;;;6.21;87.11
72210;BME280;60113;48.762;12.302;2024-01-27T11:53:30;99097.97;;;6.21;81.96
72210;BME280;60113;48.762;12.302;2024-01-27T11:55:55;99092.56;;;6.27;80.75
72210;BME280;60113;48.762;12.302;2024-01-27T11:58:21;99095.75;;;6.07;76.20
72210;BME280;60113;48.762;12.302;2024-01-27T12:00:47;99094.09;;;6.04;76.69
72210;BME280;60113;48.762;12.302;2024-01-27T12:03:13;99087.97;;;6.04;78.30
72210;BME280;60113;48.762;12.302;2024-01-27T12:05:39;99083.81;;;5.96;77.39
72210;BME280;60113;48.762;12.302;2024-01-27T12:08:07;99077.28;;;5.81;78.96
72210;BME280;60113;48.762;12.302;2024-01-27T12:10:33;99082.09;;;5.63;78.08
72210;BME280;60113;48.762;12.302;2024-01-27T12:13:00;99082.94;;;5.64;78.94
72210;BME280;60113;48.762;12.302;2024-01-27T12:15:25;99088.94;;;5.68;83.51
72210;BME280;60113;48.762;12.302;2024-01-27T12:17:52;99090.78;;;5.64;81.34
72210;BME280;60113;48.762;12.302;2024-01-27T12:20:18;99079.34;;;5.68;82.18
72210;BME280;60113;48.762;12.302;2024-01-27T12:22:43;99075.63;;;5.77;85.04
72210;BME280;60113;48.762;12.302;2024-01-27T12:25:11;99073.94;;;5.76;80.54
72210;BME280;60113;48.762;12.302;2024-01-27T12:27:39;99075.28;;;5.58;78.17
72210;BME280;60113;48.762;12.302;2024-01-27T12:30:05;99065.56;;;5.63;79.54
72210;BME280;60113;48.762;12.302;2024-01-27T12:32:31;99071.25;;;5.79;84.79
72210;BME280;60113;48.762;12.302;2024-01-27T12:34:58;99068.69;;;5.78;80.05
72210;BME280;60113;48.762;12.302;2024-01-27T12:37:26;99069.63;;;5.75;83.97
72210;BME280;60113;48.762;12.302;2024-01-27T12:39:52;99072.94;;;5.80;84.21
72210;BME280;60113;48.762;12.302;2024-01-27T12:42:17;99074.38;;;5.92;86.23
72210;BME280;60113;48.762;12.302;2024-01-27T12:44:43;99080.28;;;5.99;81.90